createdAt,value
2022-10-01T00:00:55.297Z,99388.75
2022-10-01T00:03:25.088Z,99379.16
2022-10-01T00:06:18.973Z,99394.44
2022-10-01T00:08:48.870Z,99383.88
2022-10-01T00:11:24.223Z,99384.44
2022-10-01T00:13:51.364Z,99385.13
2022-10-01T00:16:20.582Z,99377.84
2022-10-01T00:18:48.180Z,99383.22
2022-10-01T00:21:18.080Z,99394.38
2022-10-01T00:23:46.134Z,99384.16
2022-10-01T00:26:18.362Z,99378.88
2022-10-01T00:28:47.121Z,99380.25
2022-10-01T00:31:16.006Z,99379.81
2022-10-01T00:33:42.967Z,99369.66
2022-10-01T00:36:11.212Z,99359.13
2022-10-01T00:38:40.313Z,99327.44
2022-10-01T00:41:07.820Z,99344.50
2022-10-01T00:43:37.943Z,99347.03
2022-10-01T00:46:21.235Z,99355.38
2022-10-01T00:49:06.532Z,99356.81
2022-10-01T00:51:36.667Z,99358.91
2022-10-01T00:54:31.276Z,99357.88
2022-10-01T00:56:59.616Z,99362.38
2022-10-01T00:59:26.865Z,99353.09
2022-10-01T01:01:54.131Z,99358.34
2022-10-01T01:04:20.917Z,99359.38
2022-10-01T01:06:56.691Z,99353.69
2022-10-01T01:09:34.799Z,99356.94
2022-10-01T01:12:07.936Z,99355.56
2022-10-01T01:15:16.499Z,99356.97
2022-10-01T01:18:02.542Z,99353.78
2022-10-01T01:20:47.636Z,99347.97
2022-10-01T01:23:17.184Z,99362.25
2022-10-01T01:25:55.892Z,99347.97
2022-10-01T01:28:34.485Z,99350.25
2022-10-01T01:31:05.166Z,99345.06
2022-10-01T01:33:34.363Z,99347.59
2022-10-01T01:36:16.374Z,99358.31
2022-10-01T01:38:45.621Z,99366.88
2022-10-01T01:41:13.417Z,99360.22
2022-10-01T01:43:44.331Z,99360.41
2022-10-01T01:46:13.341Z,99369.44
2022-10-01T01:48:41.855Z,99355.63
2022-10-01T01:51:19.834Z,99357.50
2022-10-01T01:53:46.532Z,99351.28
2022-10-01T01:56:14.223Z,99351.47
2022-10-01T01:58:40.975Z,99350.56
2022-10-01T02:01:07.857Z,99357.59
2022-10-01T02:03:34.949Z,99363.72
2022-10-01T02:06:36.331Z,99361.06
2022-10-01T02:09:04.236Z,99363.81
2022-10-01T02:11:37.051Z,99361.16
2022-10-01T02:14:15.837Z,99362.97
2022-10-01T02:16:54.070Z,99370.28
2022-10-01T02:19:38.869Z,99364.34
2022-10-01T02:22:12.874Z,99362.47
2022-10-01T02:24:49.532Z,99369.44
2022-10-01T02:27:21.080Z,99364.34
2022-10-01T02:29:49.835Z,99366.63
2022-10-01T02:32:18.341Z,99362.28
2022-10-01T02:34:46.172Z,99368.69
2022-10-01T02:37:12.820Z,99359.97
2022-10-01T02:39:43.805Z,99363.88
2022-10-01T02:42:12.618Z,99371.69
2022-10-01T02:44:42.650Z,99373.66
2022-10-01T02:47:20.934Z,99381.19
2022-10-01T02:49:48.309Z,99373.38
2022-10-01T02:52:35.311Z,99369.97
2022-10-01T02:55:09.338Z,99356.25
2022-10-01T02:57:36.841Z,99369.97
2022-10-01T03:00:11.247Z,99365.75
2022-10-01T03:02:38.135Z,99365.66
2022-10-01T03:05:05.574Z,99369.97
2022-10-01T03:07:34.732Z,99369.13
2022-10-01T03:10:02.554Z,99376.00
2022-10-01T03:12:29.281Z,99371.13
2022-10-01T03:14:56.025Z,99375.50
2022-10-01T03:17:22.748Z,99377.47
2022-10-01T03:19:49.493Z,99377.56
2022-10-01T03:22:22.788Z,99393.09
2022-10-01T03:24:52.952Z,99396.47
2022-10-01T03:27:20.740Z,99381.63
2022-10-01T03:29:47.740Z,99376.56
2022-10-01T03:32:15.079Z,99376.00
2022-10-01T03:34:41.728Z,99370.66
2022-10-01T03:37:08.404Z,99371.66
2022-10-01T03:39:35.406Z,99358.88
2022-10-01T03:42:02.527Z,99363.19
2022-10-01T03:44:29.183Z,99360.00
2022-10-01T03:46:55.901Z,99365.19
2022-10-01T03:49:22.567Z,99354.75
2022-10-01T03:51:49.376Z,99363.56
2022-10-01T03:54:16.005Z,99356.25
2022-10-01T03:56:42.739Z,99351.16
2022-10-01T03:59:11.013Z,99338.88
2022-10-01T04:01:39.320Z,99327.75
2022-10-01T04:04:06.514Z,99332.09
2022-10-01T04:06:33.272Z,99334.53
2022-10-01T04:09:00.042Z,99326.84
2022-10-01T04:11:26.758Z,99329.28
2022-10-01T04:13:53.468Z,99334.38
2022-10-01T04:16:20.192Z,99321.22
2022-10-01T04:18:46.845Z,99319.72
2022-10-01T04:21:15.367Z,99317.16
2022-10-01T04:23:42.307Z,99309.38
2022-10-01T04:26:09.506Z,99305.25
2022-10-01T04:28:36.201Z,99292.75
2022-10-01T04:31:21.512Z,99302.06
2022-10-01T04:33:48.453Z,99301.66
2022-10-01T04:36:15.199Z,99292.38
2022-10-01T04:38:41.811Z,99282.38
2022-10-01T04:41:09.344Z,99283.13
2022-10-01T04:43:36.535Z,99265.94
2022-10-01T04:46:03.134Z,99274.94
2022-10-01T04:48:29.828Z,99261.13
2022-10-01T04:50:56.433Z,99257.56
2022-10-01T04:53:23.121Z,99254.94
2022-10-01T04:55:49.754Z,99253.72
2022-10-01T04:58:16.368Z,99269.03
2022-10-01T05:00:43.010Z,99264.25
2022-10-01T05:03:09.951Z,99267.34
2022-10-01T05:05:37.333Z,99256.16
2022-10-01T05:08:03.966Z,99262.13
2022-10-01T05:10:31.478Z,99271.19
2022-10-01T05:13:01.392Z,99255.69
2022-10-01T05:15:28.785Z,99256.38
2022-10-01T05:17:55.559Z,99241.50
2022-10-01T05:20:25.986Z,99233.50
2022-10-01T05:22:54.334Z,99258.75
2022-10-01T05:25:21.114Z,99242.47
2022-10-01T05:27:48.048Z,99248.72
2022-10-01T05:30:24.197Z,99251.34
2022-10-01T05:32:56.470Z,99250.22
2022-10-01T05:35:23.208Z,99254.59
2022-10-01T05:37:53.570Z,99256.56
2022-10-01T05:40:20.439Z,99251.16
2022-10-01T05:42:47.379Z,99231.59
2022-10-01T05:45:14.078Z,99234.13
2022-10-01T05:47:42.444Z,99233.69
2022-10-01T05:50:09.720Z,99224.56
2022-10-01T05:52:36.382Z,99228.34
2022-10-01T05:55:03.096Z,99233.50
2022-10-01T05:57:30.507Z,99232.56
2022-10-01T05:59:58.066Z,99235.81
2022-10-01T06:02:24.852Z,99228.00
2022-10-01T06:04:51.684Z,99233.84
2022-10-01T06:07:18.295Z,99232.97
2022-10-01T06:09:45.272Z,99233.94
2022-10-01T06:12:13.649Z,99244.34
2022-10-01T06:14:43.036Z,99253.53
2022-10-01T06:17:09.706Z,99258.50
2022-10-01T06:19:36.348Z,99272.59
2022-10-01T06:22:03.008Z,99271.03
2022-10-01T06:24:31.126Z,99268.41
2022-10-01T06:26:57.807Z,99255.94
2022-10-01T06:29:24.503Z,99264.16
2022-10-01T06:31:51.856Z,99287.81
2022-10-01T06:34:18.513Z,99289.41
2022-10-01T06:36:45.203Z,99285.97
2022-10-01T06:39:11.816Z,99287.22
2022-10-01T06:41:38.435Z,99291.78
2022-10-01T06:44:05.129Z,99297.03
2022-10-01T06:46:32.515Z,99303.38
2022-10-01T06:48:59.389Z,99307.38
2022-10-01T06:51:44.664Z,99292.84
2022-10-01T06:54:11.440Z,99298.88
2022-10-01T06:56:38.216Z,99291.75
2022-10-01T06:59:04.884Z,99299.41
2022-10-01T07:01:33.026Z,99286.06
2022-10-01T07:04:07.370Z,99285.84
2022-10-01T07:06:34.071Z,99291.88
2022-10-01T07:09:00.765Z,99272.66
2022-10-01T07:11:27.356Z,99260.97
2022-10-01T07:13:54.780Z,99267.22
2022-10-01T07:16:21.671Z,99280.25
2022-10-01T07:18:48.371Z,99280.63
2022-10-01T07:21:15.005Z,99273.28
2022-10-01T07:23:41.705Z,99263.88
2022-10-01T07:26:09.263Z,99271.19
2022-10-01T07:28:35.859Z,99278.69
2022-10-01T07:31:03.719Z,99283.88
2022-10-01T07:33:30.581Z,99294.78
2022-10-01T07:36:00.469Z,99278.81
2022-10-01T07:38:27.094Z,99283.16
2022-10-01T07:40:54.932Z,99284.22
2022-10-01T07:43:22.114Z,99288.28
2022-10-01T07:45:50.180Z,99288.66
2022-10-01T07:48:16.993Z,99277.16
2022-10-01T07:50:47.319Z,99270.69
2022-10-01T07:53:14.271Z,99277.81
2022-10-01T07:55:40.987Z,99279.78
2022-10-01T07:58:07.912Z,99259.28
2022-10-01T08:00:37.287Z,99262.78
2022-10-01T08:03:04.472Z,99278.69
2022-10-01T08:05:46.612Z,99256.31
2022-10-01T08:08:14.751Z,99286.81
2022-10-01T08:10:41.412Z,99269.16
2022-10-01T08:13:14.998Z,99292.38
2022-10-01T08:15:46.539Z,99282.31
2022-10-01T08:18:13.806Z,99264.31
2022-10-01T08:20:40.761Z,99255.56
2022-10-01T08:23:10.443Z,99260.81
2022-10-01T08:25:39.855Z,99254.66
2022-10-01T08:28:07.493Z,99252.41
2022-10-01T08:30:34.611Z,99236.47
2022-10-01T08:33:02.041Z,99252.41
2022-10-01T08:35:29.478Z,99256.97
2022-10-01T08:38:01.055Z,99256.50
2022-10-01T08:40:27.775Z,99255.00
2022-10-01T08:43:00.106Z,99266.19
2022-10-01T08:45:38.762Z,99257.66
2022-10-01T08:48:26.909Z,99266.75
2022-10-01T08:51:16.086Z,99266.25
2022-10-01T08:53:58.555Z,99277.41
2022-10-01T08:56:30.897Z,99265.09
2022-10-01T08:58:59.690Z,99262.13
2022-10-01T09:01:27.245Z,99267.16
2022-10-01T09:03:54.300Z,99267.69
2022-10-01T09:06:23.045Z,99277.50
2022-10-01T09:08:55.760Z,99279.81
2022-10-01T09:11:25.077Z,99272.00
2022-10-01T09:14:04.215Z,99271.84
2022-10-01T09:16:42.702Z,99272.84
2022-10-01T09:19:15.196Z,99277.22
2022-10-01T09:21:49.456Z,99276.88
2022-10-01T09:24:33.860Z,99282.69
2022-10-01T09:27:01.943Z,99274.09
2022-10-01T09:29:40.798Z,99260.56
2022-10-01T09:32:07.595Z,99284.19
2022-10-01T09:34:38.208Z,99272.34
2022-10-01T09:37:28.550Z,99286.56
2022-10-01T09:40:04.975Z,99285.41
2022-10-01T09:42:31.777Z,99274.72
2022-10-01T09:44:58.732Z,99286.25
2022-10-01T09:47:25.867Z,99256.50
2022-10-01T09:49:52.792Z,99264.59
2022-10-01T09:52:35.277Z,99270.75
2022-10-01T09:55:11.529Z,99270.47
2022-10-01T09:57:41.343Z,99271.75
2022-10-01T10:00:10.770Z,99262.13
2022-10-01T10:02:49.145Z,99267.84
2022-10-01T10:05:22.243Z,99276.75
2022-10-01T10:08:12.575Z,99285.97
2022-10-01T10:10:40.290Z,99264.56
2022-10-01T10:13:10.840Z,99277.03
2022-10-01T10:15:59.171Z,99272.59
2022-10-01T10:18:34.639Z,99288.72
2022-10-01T10:21:09.026Z,99274.88
2022-10-01T10:23:50.397Z,99287.94
2022-10-01T10:26:43.474Z,99248.75
2022-10-01T10:29:26.491Z,99235.56
2022-10-01T10:31:55.648Z,99264.13
2022-10-01T10:34:38.453Z,99268.03
2022-10-01T10:37:13.921Z,99254.47
2022-10-01T10:39:43.113Z,99275.63
2022-10-01T10:42:15.205Z,99255.56
2022-10-01T10:44:43.987Z,99253.34
2022-10-01T10:47:13.785Z,99260.59
2022-10-01T10:50:03.299Z,99258.25
2022-10-01T10:52:36.556Z,99249.72
2022-10-01T10:55:31.124Z,99251.09
2022-10-01T10:58:13.300Z,99245.06
2022-10-01T11:00:56.257Z,99236.97
2022-10-01T11:03:26.113Z,99262.72
2022-10-01T11:05:53.219Z,99242.56
2022-10-01T11:08:27.839Z,99228.28
2022-10-01T11:11:24.577Z,99249.84
2022-10-01T11:14:09.568Z,99237.97
2022-10-01T11:16:48.925Z,99230.53
2022-10-01T11:19:23.785Z,99232.34
2022-10-01T11:21:56.622Z,99231.34
2022-10-01T11:24:38.275Z,99232.47
2022-10-01T11:27:05.998Z,99235.28
2022-10-01T11:29:36.100Z,99231.09
2022-10-01T11:32:19.489Z,99225.31
2022-10-01T11:35:05.195Z,99218.06
2022-10-01T11:37:49.731Z,99218.78
2022-10-01T11:40:26.053Z,99208.69
2022-10-01T11:42:57.799Z,99214.88
2022-10-01T11:45:29.702Z,99197.97
2022-10-01T11:48:01.182Z,99202.28
2022-10-01T11:50:38.510Z,99207.59
2022-10-01T11:53:27.292Z,99206.72
2022-10-01T11:56:15.530Z,99203.13
2022-10-01T11:58:52.079Z,99196.81
2022-10-01T12:01:26.146Z,99201.34
2022-10-01T12:03:52.794Z,99201.16
2022-10-01T12:06:58.169Z,99197.25
2022-10-01T12:09:57.060Z,99196.41
2022-10-01T12:12:40.241Z,99191.34
2022-10-01T12:15:12.021Z,99187.91
2022-10-01T12:17:45.501Z,99181.34
2022-10-01T12:20:24.374Z,99198.91
2022-10-01T12:22:52.113Z,99196.38
2022-10-01T12:25:20.990Z,99192.91
2022-10-01T12:28:00.085Z,99184.53
2022-10-01T12:30:32.717Z,99189.88
2022-10-01T12:33:25.695Z,99190.16
2022-10-01T12:36:17.485Z,99179.31
2022-10-01T12:38:44.047Z,99177.75
2022-10-01T12:41:39.367Z,99183.34
2022-10-01T12:44:24.764Z,99176.47
2022-10-01T12:47:00.727Z,99176.66
2022-10-01T12:49:48.462Z,99156.78
2022-10-01T12:52:34.963Z,99140.72
2022-10-01T12:55:23.429Z,99170.47
2022-10-01T12:58:19.696Z,99165.28
2022-10-01T13:01:03.128Z,99136.22
2022-10-01T13:03:45.439Z,99129.22
2022-10-01T13:06:21.349Z,99153.31
2022-10-01T13:09:04.194Z,99131.78
2022-10-01T13:11:56.246Z,99156.97
2022-10-01T13:14:23.133Z,99134.47
2022-10-01T13:16:54.576Z,99143.00
2022-10-01T13:19:34.173Z,99134.72
2022-10-01T13:22:19.154Z,99138.44
2022-10-01T13:24:53.494Z,99128.41
2022-10-01T13:27:21.734Z,99131.53
2022-10-01T13:29:54.784Z,99133.38
2022-10-01T13:32:30.851Z,99130.56
2022-10-01T13:34:58.406Z,99119.63
2022-10-01T13:37:38.785Z,99110.56
2022-10-01T13:40:26.934Z,99104.50
2022-10-01T13:43:02.275Z,99106.88
2022-10-01T13:45:40.806Z,99125.50
2022-10-01T13:48:08.011Z,99120.75
2022-10-01T13:50:34.917Z,99095.81
2022-10-01T13:53:15.068Z,99078.78
2022-10-01T13:55:43.784Z,99065.94
2022-10-01T13:58:25.118Z,99108.09
2022-10-01T14:00:54.387Z,99116.06
2022-10-01T14:03:46.745Z,99103.22
2022-10-01T14:06:27.351Z,99103.66
2022-10-01T14:09:04.827Z,99104.75
2022-10-01T14:11:52.437Z,99105.16
2022-10-01T14:14:41.752Z,99109.25
2022-10-01T14:17:29.110Z,99099.94
2022-10-01T14:20:10.261Z,99041.97
2022-10-01T14:23:11.632Z,99094.00
2022-10-01T14:25:51.445Z,99108.81
2022-10-01T14:28:20.072Z,99105.66
2022-10-01T14:31:09.099Z,99042.88
2022-10-01T14:34:23.288Z,99105.75
2022-10-01T14:36:51.519Z,99065.00
2022-10-01T14:39:19.288Z,99092.19
2022-10-01T14:41:48.390Z,99096.78
2022-10-01T14:44:22.559Z,99098.72
2022-10-01T14:46:50.857Z,99087.09
2022-10-01T14:49:29.591Z,99103.13
2022-10-01T14:52:02.253Z,99097.38
2022-10-01T14:54:30.247Z,99102.50
2022-10-01T14:56:57.104Z,99095.94
2022-10-01T14:59:37.039Z,99094.78
2022-10-01T15:02:17.421Z,99066.94
2022-10-01T15:04:48.727Z,99082.38
2022-10-01T15:07:17.220Z,99051.03
2022-10-01T15:09:45.670Z,99077.31
2022-10-01T15:12:14.085Z,99060.09
2022-10-01T15:14:41.358Z,99097.69
2022-10-01T15:17:16.595Z,99081.59
2022-10-01T15:19:45.195Z,99087.59
2022-10-01T15:22:13.151Z,99059.13
2022-10-01T15:24:46.525Z,99085.69
2022-10-01T15:27:15.720Z,99088.69
2022-10-01T15:29:43.001Z,99080.19
2022-10-01T15:32:22.567Z,99065.44
2022-10-01T15:34:55.240Z,99034.09
2022-10-01T15:37:34.736Z,99072.16
2022-10-01T15:40:02.286Z,99055.84
2022-10-01T15:42:31.640Z,99007.44
2022-10-01T15:45:23.081Z,99058.00
2022-10-01T15:47:56.998Z,99052.25
2022-10-01T15:50:32.406Z,99049.13
2022-10-01T15:53:23.418Z,99050.47
2022-10-01T15:55:52.515Z,99057.66
2022-10-01T15:58:22.136Z,99052.41
2022-10-01T16:01:04.116Z,99054.00
2022-10-01T16:03:33.693Z,99045.16
2022-10-01T16:06:02.581Z,99051.72
2022-10-01T16:08:34.668Z,99062.91
2022-10-01T16:11:18.778Z,99034.56
2022-10-01T16:13:50.632Z,98983.72
2022-10-01T16:16:24.119Z,98991.75
2022-10-01T16:19:18.794Z,99039.19
2022-10-01T16:22:17.428Z,99046.69
2022-10-01T16:24:48.957Z,99035.13
2022-10-01T16:27:18.811Z,99023.31
2022-10-01T16:29:54.677Z,99039.91
2022-10-01T16:32:21.330Z,99030.06
2022-10-01T16:34:47.949Z,99035.50
2022-10-01T16:37:15.450Z,99031.13
2022-10-01T16:39:45.069Z,99019.78
2022-10-01T16:42:24.794Z,99011.47
2022-10-01T16:44:51.856Z,99009.53
2022-10-01T16:47:18.491Z,99013.91
2022-10-01T16:49:47.153Z,99013.53
2022-10-01T16:52:16.581Z,98997.22
2022-10-01T16:54:44.540Z,99002.25
2022-10-01T16:57:11.449Z,98985.19
2022-10-01T16:59:38.080Z,98977.41
2022-10-01T17:02:04.771Z,98988.50
2022-10-01T17:04:33.949Z,98992.59
2022-10-01T17:07:01.252Z,98982.06
2022-10-01T17:09:27.958Z,98988.78
2022-10-01T17:11:54.950Z,98988.78
2022-10-01T17:14:22.215Z,98988.91
2022-10-01T17:16:50.842Z,98992.88
2022-10-01T17:19:18.583Z,98993.94
2022-10-01T17:21:45.822Z,98989.03
2022-10-01T17:24:13.119Z,98994.44
2022-10-01T17:26:42.014Z,98989.88
2022-10-01T17:29:09.998Z,99001.41
2022-10-01T17:31:46.649Z,98993.72
2022-10-01T17:34:16.879Z,98994.69
2022-10-01T17:36:43.529Z,98990.25
2022-10-01T17:39:10.331Z,98985.09
2022-10-01T17:41:36.900Z,98970.66
2022-10-01T17:44:03.487Z,98980.88
2022-10-01T17:46:30.989Z,98977.63
2022-10-01T17:48:57.803Z,98970.31
2022-10-01T17:51:27.427Z,98975.00
2022-10-01T17:53:55.058Z,98975.00
2022-10-01T17:56:21.798Z,98964.31
2022-10-01T17:58:48.516Z,98961.03
2022-10-01T18:01:19.656Z,98955.63
2022-10-01T18:03:46.616Z,98962.13
2022-10-01T18:06:16.242Z,98962.03
2022-10-01T18:08:58.154Z,98955.16
2022-10-01T18:11:26.834Z,98950.75
2022-10-01T18:13:53.481Z,98949.88
2022-10-01T18:16:20.200Z,98939.44
2022-10-01T18:21:40.295Z,98934.84
2022-10-01T18:24:07.142Z,98928.50
2022-10-01T18:26:34.143Z,98925.63
2022-10-01T18:29:01.144Z,98927.31
2022-10-01T18:31:36.723Z,98921.06
2022-10-01T18:34:10.604Z,98913.38
2022-10-01T18:37:03.009Z,98906.91
2022-10-01T18:39:49.747Z,98913.84
2022-10-01T18:42:22.117Z,98899.22
2022-10-01T18:45:16.294Z,98891.19
2022-10-01T18:47:54.911Z,98901.50
2022-10-01T18:50:26.136Z,98893.47
2022-10-01T18:52:58.442Z,98886.38
2022-10-01T18:56:09.388Z,98882.03
2022-10-01T18:59:19.464Z,98896.22
2022-10-01T19:02:04.727Z,98886.63
2022-10-01T19:04:34.422Z,98883.97
2022-10-01T19:07:18.814Z,98873.28
2022-10-01T19:09:52.118Z,98873.28
2022-10-01T19:12:40.702Z,98883.13
2022-10-01T19:15:17.318Z,98878.94
2022-10-01T19:18:11.839Z,98870.16
2022-10-01T19:20:48.137Z,98862.84
2022-10-01T19:23:20.609Z,98858.28
2022-10-01T19:25:54.968Z,98851.69
2022-10-01T19:28:40.099Z,98839.56
2022-10-01T19:31:12.822Z,98838.50
2022-10-01T19:33:47.461Z,98822.41
2022-10-01T19:36:25.601Z,98807.75
2022-10-01T19:38:54.177Z,98818.53
2022-10-01T19:41:48.381Z,98807.50
2022-10-01T19:44:28.606Z,98801.00
2022-10-01T19:46:58.391Z,98796.81
2022-10-01T19:49:38.498Z,98800.88
2022-10-01T19:52:18.346Z,98793.47
2022-10-01T19:55:05.846Z,98792.13
2022-10-01T19:57:39.079Z,98781.66
2022-10-01T20:00:12.388Z,98782.41
2022-10-01T20:03:11.229Z,98758.53
2022-10-01T20:05:53.206Z,98750.28
2022-10-01T20:08:46.303Z,98724.25
2022-10-01T20:11:23.682Z,98745.84
2022-10-01T20:14:02.228Z,98743.06
2022-10-01T20:16:29.036Z,98752.78
2022-10-01T20:19:07.877Z,98731.09
2022-10-01T20:22:00.485Z,98718.72
2022-10-01T20:24:49.269Z,98720.31
2022-10-01T20:27:52.624Z,98720.78
2022-10-01T20:30:21.431Z,98701.47
2022-10-01T20:33:06.430Z,98715.63
2022-10-01T20:35:46.808Z,98694.75
2022-10-01T20:38:17.477Z,98692.94
2022-10-01T20:40:50.859Z,98704.34
2022-10-01T20:43:31.373Z,98706.63
2022-10-01T20:46:00.257Z,98688.41
2022-10-01T20:48:32.574Z,98687.31
2022-10-01T20:51:30.868Z,98691.75
2022-10-01T20:54:04.274Z,98683.13
2022-10-01T20:56:35.167Z,98684.81
2022-10-01T20:59:21.958Z,98681.34
2022-10-01T21:02:23.879Z,98676.06
2022-10-01T21:05:04.489Z,98680.75
2022-10-01T21:08:08.566Z,98679.91
2022-10-01T21:10:48.744Z,98653.78
2022-10-01T21:13:17.384Z,98648.00
2022-10-01T21:15:55.145Z,98647.88
2022-10-01T21:18:40.050Z,98637.81
2022-10-01T21:21:30.105Z,98627.97
2022-10-01T21:24:06.995Z,98622.56
2022-10-01T21:26:43.804Z,98629.16
2022-10-01T21:29:22.115Z,98630.38
2022-10-01T21:32:12.658Z,98638.53
2022-10-01T21:35:15.715Z,98636.63
2022-10-01T21:37:56.178Z,98632.44
2022-10-01T21:41:18.267Z,98625.47
2022-10-01T21:44:11.303Z,98625.56
2022-10-01T21:47:07.518Z,98616.56
2022-10-01T21:49:48.829Z,98602.28
2022-10-01T21:52:44.438Z,98596.75
2022-10-01T21:55:38.517Z,98606.22
2022-10-01T21:58:21.029Z,98595.56
2022-10-01T22:00:57.909Z,98598.66
2022-10-01T22:03:57.728Z,98579.22
2022-10-01T22:06:33.112Z,98585.56
2022-10-01T22:09:09.103Z,98593.38
2022-10-01T22:11:39.622Z,98623.47
2022-10-01T22:14:25.635Z,98632.03
2022-10-01T22:16:56.366Z,98646.19
2022-10-01T22:19:29.244Z,98627.38
2022-10-01T22:22:04.967Z,98647.50
2022-10-01T22:24:54.877Z,98654.97
2022-10-01T22:27:47.637Z,98659.41
2022-10-01T22:30:19.078Z,98658.56
2022-10-01T22:32:53.394Z,98658.19
2022-10-01T22:35:28.870Z,98684.31
2022-10-01T22:38:00.431Z,98671.13
2022-10-01T22:40:34.770Z,98658.91
2022-10-01T22:43:12.557Z,98674.59
2022-10-01T22:46:00.495Z,98677.72
2022-10-01T22:48:30.069Z,98678.09
2022-10-01T22:51:02.765Z,98653.38
2022-10-01T22:53:47.206Z,98629.66
2022-10-01T22:56:21.894Z,98622.97
2022-10-01T22:59:07.321Z,98615.06
2022-10-01T23:01:44.362Z,98602.94
2022-10-01T23:04:20.341Z,98594.69
2022-10-01T23:07:05.317Z,98587.72
2022-10-01T23:09:49.264Z,98588.72
2022-10-01T23:12:15.783Z,98576.25
2022-10-01T23:14:45.967Z,98564.75
2022-10-01T23:17:25.220Z,98549.88
2022-10-01T23:20:03.870Z,98537.78
2022-10-01T23:22:45.812Z,98554.09
2022-10-01T23:25:39.977Z,98559.59
2022-10-01T23:28:51.237Z,98554.34
2022-10-01T23:31:25.064Z,98562.47
2022-10-01T23:33:54.554Z,98551.94
2022-10-01T23:36:30.084Z,98549.66
2022-10-01T23:39:08.736Z,98539.59
2022-10-01T23:41:40.955Z,98555.03
2022-10-01T23:44:15.954Z,98595.03
2022-10-01T23:46:43.667Z,98615.78
2022-10-01T23:49:15.435Z,98601.53
2022-10-01T23:51:54.124Z,98573.38
2022-10-01T23:54:32.439Z,98522.81
2022-10-01T23:57:14.351Z,98514.56
2022-10-01T23:59:45.201Z,98486.66
